»·PEaware :: N143VT KUDD-KSBP

N143VT :: KUDD-KSBP

FLIGHT INFORMATION

Flight Status: Arrived
Operator: Privately registered:
United States
More flights under this callsign
Pilot: Anonymous 16492 (16492)
Aircraft: ECLIPSE 500
(EA50)
More flights by this aircraft type
Origin: KUDD Bermuda Dunes
United States
Destination: KSBP San Luis Co Regl
United States
More flights between these airports :: More routes between these airports
Route: +KUDD1 TRM J78 LAX J88 RZS
File this flight plan on PilotEdge
Remarks:
Altitude:
(Current/Filed)
28,000ft
Speed:
(Current/Filed)
330kts
Departed: 09-Oct-18 04:34 PM
Arrived: 09-Oct-18 05:42 PM
Distance/Time
Traveled:
234nm/1:07
Distance/Time
To Go:
Arrived

Flight Plot

Page will automatically refresh every two minutes.

Flight plan parsing failed; only flown route is shown


Map Options




Map Legend


Flown Route
Filed Route
Departure Airport
Arrival Airport
Navaid (VOR, NDB)
Fix

Horizontal Profiles

Position Reports

Time Latitude Longitude Heading Altitude Ground
Speed
09-Oct-18 16:25 33.744819 -116.269557 270 76ft 0kts
09-Oct-18 16:26 33.744819 -116.269557 270 76ft 0kts
09-Oct-18 16:27 33.744819 -116.269557 270 76ft 0kts
09-Oct-18 16:28 33.744819 -116.269557 270 76ft 0kts
09-Oct-18 16:29 33.744819 -116.269557 269 76ft 0kts
09-Oct-18 16:30 33.744819 -116.269557 270 76ft 0kts
09-Oct-18 16:31 33.745367 -116.269771 357 76ft 2kts
09-Oct-18 16:32 33.746807 -116.272301 296 76ft 14kts
09-Oct-18 16:33 33.749015 -116.277736 294 76ft 21kts
09-Oct-18 16:34 33.750923 -116.282424 321 76ft 5kts
09-Oct-18 16:35 33.751157 -116.282354 20 76ft 8kts
09-Oct-18 16:36 33.747913 -116.273645 115 110ft 101kts
09-Oct-18 16:37 33.720502 -116.249268 161 1642ft 156kts
09-Oct-18 16:38 33.683216 -116.222206 137 3744ft 165kts
09-Oct-18 16:39 33.649278 -116.184370 141 5723ft 172kts
09-Oct-18 16:40 33.618377 -116.195320 281 7553ft 180kts
09-Oct-18 16:41 33.631979 -116.263755 278 10081ft 182kts
09-Oct-18 16:42 33.638872 -116.313579 277 11786ft 185kts
09-Oct-18 16:43 33.646867 -116.384905 276 14019ft 187kts
09-Oct-18 16:44 33.651980 -116.436842 276 15510ft 189kts
09-Oct-18 16:45 33.657793 -116.499770 276 17175ft 192kts
09-Oct-18 16:46 33.663487 -116.563797 276 18728ft 195kts
09-Oct-18 16:47 33.669126 -116.628531 277 20165ft 197kts
09-Oct-18 16:48 33.674404 -116.689889 276 21438ft 200kts
09-Oct-18 16:49 33.682261 -116.753024 281 22671ft 202kts
09-Oct-18 16:50 33.692727 -116.819127 281 23867ft 204kts
09-Oct-18 16:51 33.703275 -116.886501 282 24985ft 207kts
09-Oct-18 16:52 33.713924 -116.954932 282 26003ft 211kts
09-Oct-18 16:53 33.724699 -117.024568 282 26957ft 215kts
09-Oct-18 16:54 33.735570 -117.095161 282 27824ft 219kts
09-Oct-18 16:55 33.747503 -117.172940 281 27882ft 254kts
09-Oct-18 16:56 33.760914 -117.260900 281 27880ft 281kts
09-Oct-18 16:57 33.775318 -117.355890 281 27878ft 300kts
09-Oct-18 16:58 33.790491 -117.456501 281 27876ft 312kts
09-Oct-18 16:59 33.806014 -117.560018 281 27876ft 320kts
09-Oct-18 17:00 33.820070 -117.654288 281 27879ft 325kts
09-Oct-18 17:01 33.834940 -117.754551 281 27887ft 329kts
09-Oct-18 17:02 33.850889 -117.862738 281 27888ft 332kts
09-Oct-18 17:03 33.866476 -117.969152 281 27885ft 333kts
09-Oct-18 17:04 33.882451 -118.078911 281 27881ft 334kts
09-Oct-18 17:05 33.898337 -118.188764 281 27886ft 335kts
09-Oct-18 17:06 33.914139 -118.298756 281 27893ft 335kts
09-Oct-18 17:07 33.929753 -118.408155 281 27897ft 335kts
09-Oct-18 17:08 33.966877 -118.506987 297 27897ft 317kts
09-Oct-18 17:09 34.007341 -118.600976 297 27903ft 321kts
09-Oct-18 17:10 34.047638 -118.693751 297 27908ft 322kts
09-Oct-18 17:11 34.087678 -118.785877 297 27891ft 321kts
09-Oct-18 17:12 34.127513 -118.877773 297 27890ft 321kts
09-Oct-18 17:13 34.172272 -118.981296 297 25981ft 274kts
09-Oct-18 17:14 34.200585 -119.046972 298 23286ft 263kts
09-Oct-18 17:15 34.238416 -119.134762 299 19629ft 252kts
09-Oct-18 17:16 34.263674 -119.193506 299 17261ft 247kts
09-Oct-18 17:17 34.294935 -119.266362 299 15432ft 242kts
09-Oct-18 17:18 34.324583 -119.335619 299 13776ft 238kts
09-Oct-18 17:19 34.359305 -119.416911 298 11908ft 233kts
09-Oct-18 17:20 34.383701 -119.474142 298 11000ft 223kts
09-Oct-18 17:21 34.412887 -119.542775 298 10990ft 230kts
09-Oct-18 17:22 34.442071 -119.611534 298 10990ft 229kts
09-Oct-18 17:23 34.471080 -119.680011 298 10991ft 229kts
09-Oct-18 17:24 34.500017 -119.748452 298 10991ft 229kts
09-Oct-18 17:25 34.540866 -119.806787 315 10988ft 229kts
09-Oct-18 17:26 34.585920 -119.860929 315 10983ft 228kts
09-Oct-18 17:27 34.631292 -119.915053 315 10979ft 228kts
09-Oct-18 17:28 34.676638 -119.969047 315 10970ft 224kts
09-Oct-18 17:29 34.720770 -120.021544 315 8869ft 220kts
09-Oct-18 17:30 34.763934 -120.072995 314 7158ft 215kts
09-Oct-18 17:31 34.805593 -120.122756 314 5991ft 202kts
09-Oct-18 17:32 34.846927 -120.172264 314 5990ft 210kts
09-Oct-18 17:33 34.888207 -120.221738 315 5996ft 209kts
09-Oct-18 17:34 34.929588 -120.271338 315 5998ft 209kts
09-Oct-18 17:35 34.970863 -120.320886 315 5998ft 208kts
09-Oct-18 17:36 35.011281 -120.369481 315 5464ft 205kts
09-Oct-18 17:37 35.051017 -120.417310 315 4029ft 191kts
09-Oct-18 17:38 35.087408 -120.461226 315 3997ft 181kts
09-Oct-18 17:39 35.122929 -120.504087 317 3997ft 181kts
09-Oct-18 17:40 35.164082 -120.534454 326 3062ft 166kts
09-Oct-18 17:41 35.196723 -120.568483 308 2129ft 140kts
09-Oct-18 17:42 35.218395 -120.607356 306 932ft 122kts
09-Oct-18 17:43 35.233804 -120.634640 305 218ft 76kts
09-Oct-18 17:44 35.237378 -120.638894 110 214ft 4kts
09-Oct-18 17:45 35.237751 -120.638210 270 214ft 0kts
09-Oct-18 17:46 35.237751 -120.638210 270 214ft 0kts
09-Oct-18 17:47 35.237751 -120.638210 270 214ft 0kts
09-Oct-18 17:48 35.237751 -120.638210 270 214ft 0kts
09-Oct-18 17:49 35.237751 -120.638210 270 214ft 0kts
09-Oct-18 17:50 35.237751 -120.638210 270 214ft 0kts

Navigation Log

Ident Type
Flight plan parsing failed, navigation log unavailable